Pilanesberg International Airport

Airport
ICAO code: 
FAPN
IATA Code: 
NTY
Summary
ICAO Region: 
AFI
Territory: 
Location: 
, North-West
Serving: 
Pilanesberg
Elevation: 
3412 ft
Coordinates: 
Aerial View: 
25° 20' 1.759" S, 27° 10' 24.089" E
Metar
Observation
FAPN 020100Z AUTO 31005KT //// // ////// 21/14 Q1019
Station
PILANESBERG
Date/Time
2021-12-02 01:00:00
Wind direction
310°
Wind speed
05 kts
Lowest cloud amount
n/a
Temperature
21°C
Dew point
14°C
Humidity
64%
QNH
1019 hPa
Weather condition
n/a

Runways

Designator Length Width Surface Rops
5/23 2750 30 ASP No/No
Airport map: 
Aerial View: 

SKYbrary Partners:

Safety knowledge contributed by: